KLBF/LBF METAR and TAF weather

Enter ICAO airport designator
Station Type Date Time Source
KLBF METAR 2020/04/05 17:53 UTC NOAA

KLBF 051753Z AUTO 17016G25KT 10SM CLR 14/02 A2988 RMK AO2 SLP126 T01440022 10150 20006 58014


Station Type Date Time Source
KLBF Decoded METAR 2020/04/05 17:53 UTC NOAA

NORTH PLATTE REGIONAL AIRPORT , NE, United States (KLBF) 41-07N 100-40W 847M
Apr 05, 2020 - 01:53 PM EDT / 2020.04.05 1753 UTC
Wind: from the S (170 degrees) at 18 MPH (16 KT) gusting to 29 MPH (25 KT):0
Visibility: 10 mile(s):0
Sky conditions: clear
Temperature: 57.9 F (14.4 C)
Dew Point: 36.0 F (2.2 C)
Relative Humidity: 43%
Pressure (altimeter): 29.88 in. Hg (1011 hPa)
Pressure tendency: 0.04 inches (1.4 hPa) lower than three hours ago
ob: KLBF 051753Z AUTO 17016G25KT 10SM CLR 14/02 A2988 RMK AO2 SLP126 T01440022 10150 20006 58014
cycle: 18

Station Type Date Time Source
KLBF TAF 2020/04/05 18:22 UTC NOAA

TAF KLBF 051720Z 0518/0618 16016G25KT P6SM FEW250
FM060000 16011KT P6SM SCT250
FM060600 13006KT 6SM BR BKN050
FM060900 VRB03KT 4SM BR BKN012
TEMPO 0610/0614 1SM BR BKN007
FM061500 VRB03KT 4SM BR SCT025
FM061700 VRB04KT P6SM FEW150

Example: see airport list